Terminal Aerodrome Forecast
Issued by NWS

Current Version | Previous Version | Text Only | Print | Product List | Glossary On
Versions: 1 2 3 4 5 6 7 8 9 10 11 12
000
FTUS45 KTFX 031742
TAFBZN
TAF
KBZN 031742Z 0318/0418 VRB05KT P6SM SCT080 BKN150
     FM032100 15009KT P6SM SCT070 BKN120
     FM040100 19008KT P6SM SCT050 BKN090 PROB30 0403/0407 VRB15G30KT
      -TSRA BKN050CB
     FM041500 28007KT P6SM BKN120=

USA.gov is the U.S. government's official web portal to all federal, state and local government web resources and services.